Terminal Aerodrome Forecast
Issued by NWS Portland, OR

Home | Current Version | Previous Version | Text Only | Print | Product List | Glossary On
Versions: 1 2 3 4 5 6 7 8 9 10 11 12 13 14 15 16 17 18 19 20 21 22 23 24 25 26 27 28 29 30
000
FTUS46 KPQR 120546
TAFEUG
TAF
KEUG 120546Z 1206/1306 22005KT P6SM FEW090 BKN140
     FM121000 23005KT P6SM SCT012 SCT250
     FM121200 22002KT P6SM SCT007 BKN250
     FM121700 30003KT P6SM SCT035 SCT100=

USA.gov is the U.S. government's official web portal to all federal, state and local government web resources and services.